sensor_id;sensor_type;location;lat;lon;timestamp;pressure;altitude;pressure_sealevel;temperature;humidity
34961;BME280;30789;52.030;7.110;2023-09-08T00:23:07;101028.38;;;19.20;72.13
34961;BME280;30789;52.030;7.110;2023-09-08T00:23:54;101025.81;;;19.10;71.81
34961;BME280;30789;52.030;7.110;2023-09-08T00:26:48;101028.56;;;18.94;72.99
34961;BME280;30789;52.030;7.110;2023-09-08T00:50:14;101021.09;;;18.71;73.65
34961;BME280;30789;52.030;7.110;2023-09-08T00:53:04;101033.94;;;18.68;73.70
34961;BME280;30789;52.030;7.110;2023-09-08T00:55:47;101026.13;;;18.60;74.34
34961;BME280;30789;52.030;7.110;2023-09-08T00:58:17;101017.47;;;18.54;74.38
34961;BME280;30789;52.030;7.110;2023-09-08T01:00:52;101017.81;;;18.56;74.49
34961;BME280;30789;52.030;7.110;2023-09-08T01:03:18;101016.91;;;18.43;74.07
34961;BME280;30789;52.030;7.110;2023-09-08T01:05:47;101018.47;;;18.44;74.15
34961;BME280;30789;52.030;7.110;2023-09-08T01:08:17;101024.28;;;18.30;74.60
34961;BME280;30789;52.030;7.110;2023-09-08T01:10:47;101032.81;;;18.23;75.12
34961;BME280;30789;52.030;7.110;2023-09-08T01:13:14;101032.38;;;18.25;74.98
34961;BME280;30789;52.030;7.110;2023-09-08T01:15:40;101034.81;;;18.23;75.43
34961;BME280;30789;52.030;7.110;2023-09-08T01:18:07;101037.75;;;18.16;75.43
34961;BME280;30789;52.030;7.110;2023-09-08T01:20:43;101045.41;;;18.12;75.51
34961;BME280;30789;52.030;7.110;2023-09-08T01:23:41;101043.94;;;18.04;76.54
34961;BME280;30789;52.030;7.110;2023-09-08T01:26:17;101039.84;;;17.89;76.66
34961;BME280;30789;52.030;7.110;2023-09-08T01:28:49;101038.03;;;17.79;77.17
34961;BME280;30789;52.030;7.110;2023-09-08T01:31:18;101038.94;;;17.72;77.65
34961;BME280;30789;52.030;7.110;2023-09-08T01:33:56;101029.06;;;17.68;78.08
34961;BME280;30789;52.030;7.110;2023-09-08T01:36:23;101029.84;;;17.68;78.08
34961;BME280;30789;52.030;7.110;2023-09-08T01:38:49;101027.84;;;17.69;78.05
34961;BME280;30789;52.030;7.110;2023-09-08T01:41:18;101031.13;;;17.64;78.29
34961;BME280;30789;52.030;7.110;2023-09-08T01:43:47;101023.59;;;17.61;78.01
34961;BME280;30789;52.030;7.110;2023-09-08T01:46:17;101022.03;;;17.60;78.02
34961;BME280;30789;52.030;7.110;2023-09-08T01:48:46;101016.53;;;17.56;78.51
34961;BME280;30789;52.030;7.110;2023-09-08T01:51:12;101013.41;;;17.51;78.47
34961;BME280;30789;52.030;7.110;2023-09-08T01:53:42;101017.88;;;17.45;78.76
34961;BME280;30789;52.030;7.110;2023-09-08T01:56:11;101011.47;;;17.48;78.83
34961;BME280;30789;52.030;7.110;2023-09-08T02:01:46;100999.47;;;17.51;79.11
34961;BME280;30789;52.030;7.110;2023-09-08T02:11:09;101011.13;;;17.69;78.03
34961;BME280;30789;52.030;7.110;2023-09-08T02:30:24;101007.69;;;17.35;79.24
34961;BME280;30789;52.030;7.110;2023-09-08T02:46:37;101016.69;;;17.19;78.88
34961;BME280;30789;52.030;7.110;2023-09-08T02:52:19;101021.56;;;17.12;79.76
34961;BME280;30789;52.030;7.110;2023-09-08T02:58:52;101017.91;;;17.18;79.50
34961;BME280;30789;52.030;7.110;2023-09-08T03:26:05;101004.28;;;16.97;81.02
34961;BME280;30789;52.030;7.110;2023-09-08T03:31:53;100996.72;;;16.97;81.00
34961;BME280;30789;52.030;7.110;2023-09-08T04:25:38;100995.19;;;16.93;80.62
34961;BME280;30789;52.030;7.110;2023-09-08T04:28:06;100989.25;;;16.91;81.15
34961;BME280;30789;52.030;7.110;2023-09-08T04:30:33;100997.16;;;16.96;81.02
34961;BME280;30789;52.030;7.110;2023-09-08T04:33:00;100998.72;;;16.97;81.11
34961;BME280;30789;52.030;7.110;2023-09-08T04:35:26;100992.28;;;17.00;80.64
34961;BME280;30789;52.030;7.110;2023-09-08T04:37:53;100998.28;;;16.98;80.61
34961;BME280;30789;52.030;7.110;2023-09-08T04:40:20;100994.78;;;16.94;80.70
34961;BME280;30789;52.030;7.110;2023-09-08T04:42:48;100999.63;;;16.90;80.76
34961;BME280;30789;52.030;7.110;2023-09-08T04:45:14;100990.06;;;16.91;81.21
34961;BME280;30789;52.030;7.110;2023-09-08T04:47:41;100995.63;;;16.91;80.99
34961;BME280;30789;52.030;7.110;2023-09-08T04:50:12;101001.19;;;16.91;80.98
34961;BME280;30789;52.030;7.110;2023-09-08T04:52:38;100998.38;;;16.95;80.60
34961;BME280;30789;52.030;7.110;2023-09-08T04:55:06;100999.47;;;17.01;80.23
34961;BME280;30789;52.030;7.110;2023-09-08T04:57:35;100998.88;;;17.13;80.30
34961;BME280;30789;52.030;7.110;2023-09-08T05:00:14;101002.38;;;17.17;79.33
34961;BME280;30789;52.030;7.110;2023-09-08T05:02:43;101004.31;;;17.20;79.64
34961;BME280;30789;52.030;7.110;2023-09-08T05:05:10;101004.31;;;17.20;79.79
34961;BME280;30789;52.030;7.110;2023-09-08T05:07:37;101000.41;;;17.18;79.47
34961;BME280;30789;52.030;7.110;2023-09-08T05:10:04;100998.41;;;17.18;79.35
34961;BME280;30789;52.030;7.110;2023-09-08T05:12:34;100995.25;;;17.16;79.68
34961;BME280;30789;52.030;7.110;2023-09-08T05:15:01;100998.50;;;17.11;80.26
34961;BME280;30789;52.030;7.110;2023-09-08T05:17:37;100996.47;;;17.15;79.18
34961;BME280;30789;52.030;7.110;2023-09-08T05:20:05;100998.84;;;17.17;78.49
34961;BME280;30789;52.030;7.110;2023-09-08T05:22:39;100999.44;;;17.28;78.40
34961;BME280;30789;52.030;7.110;2023-09-08T05:25:11;100995.31;;;17.36;78.70
34961;BME280;30789;52.030;7.110;2023-09-08T05:27:42;100996.84;;;17.40;78.18
34961;BME280;30789;52.030;7.110;2023-09-08T05:30:11;101003.97;;;17.45;78.21
34961;BME280;30789;52.030;7.110;2023-09-08T05:32:42;100994.03;;;17.44;78.46
34961;BME280;30789;52.030;7.110;2023-09-08T05:35:09;100992.81;;;17.45;78.42
34961;BME280;30789;52.030;7.110;2023-09-08T05:37:36;100993.97;;;17.47;78.71
34961;BME280;30789;52.030;7.110;2023-09-08T05:40:05;100992.03;;;17.44;78.96
34961;BME280;30789;52.030;7.110;2023-09-08T05:42:32;100990.41;;;17.47;78.60
34961;BME280;30789;52.030;7.110;2023-09-08T05:44:59;100993.13;;;17.50;78.89
34961;BME280;30789;52.030;7.110;2023-09-08T05:47:25;100994.59;;;17.58;77.77
34961;BME280;30789;52.030;7.110;2023-09-08T05:49:53;101001.13;;;17.71;76.43
34961;BME280;30789;52.030;7.110;2023-09-08T05:52:20;101001.78;;;17.79;76.19
34961;BME280;30789;52.030;7.110;2023-09-08T05:54:46;101002.00;;;17.88;76.61
34961;BME280;30789;52.030;7.110;2023-09-08T05:57:13;101007.97;;;17.90;76.82
34961;BME280;30789;52.030;7.110;2023-09-08T05:59:40;100998.78;;;17.89;77.09
34961;BME280;30789;52.030;7.110;2023-09-08T06:02:06;101001.16;;;17.91;77.46
34961;BME280;30789;52.030;7.110;2023-09-08T06:04:33;101003.09;;;17.94;77.11
34961;BME280;30789;52.030;7.110;2023-09-08T06:07:01;100998.25;;;17.98;77.42
34961;BME280;30789;52.030;7.110;2023-09-08T06:09:30;100997.81;;;17.99;78.21
34961;BME280;30789;52.030;7.110;2023-09-08T06:11:56;101002.53;;;18.02;77.08
34961;BME280;30789;52.030;7.110;2023-09-08T06:14:23;100999.19;;;18.11;77.86
34961;BME280;30789;52.030;7.110;2023-09-08T06:16:49;101006.69;;;18.14;78.26
34961;BME280;30789;52.030;7.110;2023-09-08T06:19:16;101005.72;;;18.24;76.73
34961;BME280;30789;52.030;7.110;2023-09-08T06:21:43;101007.50;;;18.34;77.25
34961;BME280;30789;52.030;7.110;2023-09-08T06:24:11;101006.59;;;18.40;75.98
34961;BME280;30789;52.030;7.110;2023-09-08T06:26:39;101015.25;;;18.46;76.57
34961;BME280;30789;52.030;7.110;2023-09-08T06:29:07;101015.88;;;18.53;76.22
34961;BME280;30789;52.030;7.110;2023-09-08T06:31:33;101024.47;;;18.62;74.81
34961;BME280;30789;52.030;7.110;2023-09-08T06:34:00;101019.38;;;18.77;73.45
34961;BME280;30789;52.030;7.110;2023-09-08T06:36:26;101012.84;;;18.84;73.89
34961;BME280;30789;52.030;7.110;2023-09-08T06:38:55;101017.91;;;18.89;73.96
34961;BME280;30789;52.030;7.110;2023-09-08T06:41:23;101016.63;;;18.93;74.34
34961;BME280;30789;52.030;7.110;2023-09-08T06:43:52;101011.31;;;18.99;74.21
34961;BME280;30789;52.030;7.110;2023-09-08T06:46:18;101018.75;;;19.05;74.28
34961;BME280;30789;52.030;7.110;2023-09-08T06:48:45;101021.34;;;19.12;73.63
34961;BME280;30789;52.030;7.110;2023-09-08T06:51:14;101026.25;;;19.24;72.97
34961;BME280;30789;52.030;7.110;2023-09-08T06:53:42;101022.91;;;19.33;72.62
34961;BME280;30789;52.030;7.110;2023-09-08T06:56:09;101023.41;;;19.44;72.41
34961;BME280;30789;52.030;7.110;2023-09-08T06:58:37;101027.09;;;19.57;71.24
34961;BME280;30789;52.030;7.110;2023-09-08T07:01:04;101023.00;;;19.77;70.93
34961;BME280;30789;52.030;7.110;2023-09-08T07:03:30;101024.63;;;19.91;69.82
34961;BME280;30789;52.030;7.110;2023-09-08T07:06:03;101028.19;;;19.91;70.80
34961;BME280;30789;52.030;7.110;2023-09-08T07:08:30;101017.41;;;20.06;71.24
34961;BME280;30789;52.030;7.110;2023-09-08T07:10:59;101028.44;;;20.13;69.98
34961;BME280;30789;52.030;7.110;2023-09-08T07:13:25;101022.59;;;20.36;68.98
34961;BME280;30789;52.030;7.110;2023-09-08T07:15:53;101019.34;;;20.38;69.35
34961;BME280;30789;52.030;7.110;2023-09-08T07:18:19;101017.97;;;20.58;68.26
34961;BME280;30789;52.030;7.110;2023-09-08T07:20:46;101019.97;;;20.58;68.29
34961;BME280;30789;52.030;7.110;2023-09-08T07:23:13;101025.81;;;20.76;68.16
34961;BME280;30789;52.030;7.110;2023-09-08T07:25:40;101018.84;;;20.96;66.36
34961;BME280;30789;52.030;7.110;2023-09-08T07:28:09;101014.78;;;20.97;66.29
34961;BME280;30789;52.030;7.110;2023-09-08T07:30:36;101025.34;;;21.06;66.34
34961;BME280;30789;52.030;7.110;2023-09-08T07:33:06;101019.63;;;21.22;65.08
34961;BME280;30789;52.030;7.110;2023-09-08T07:35:36;101027.69;;;21.32;64.84
34961;BME280;30789;52.030;7.110;2023-09-08T07:38:03;101028.38;;;21.36;64.95
34961;BME280;30789;52.030;7.110;2023-09-08T07:40:31;101025.22;;;21.47;64.66
34961;BME280;30789;52.030;7.110;2023-09-08T07:42:57;101018.13;;;21.67;63.88
34961;BME280;30789;52.030;7.110;2023-09-08T07:45:24;101024.19;;;21.66;63.87
34961;BME280;30789;52.030;7.110;2023-09-08T07:47:51;101017.66;;;21.69;63.59
34961;BME280;30789;52.030;7.110;2023-09-08T07:50:21;101025.28;;;21.81;63.37
34961;BME280;30789;52.030;7.110;2023-09-08T07:52:48;101028.84;;;21.94;62.99
34961;BME280;30789;52.030;7.110;2023-09-08T07:55:15;101028.72;;;21.98;63.66
34961;BME280;30789;52.030;7.110;2023-09-08T07:57:43;101021.13;;;22.20;62.26
34961;BME280;30789;52.030;7.110;2023-09-08T08:00:12;101024.59;;;22.45;61.12
34961;BME280;30789;52.030;7.110;2023-09-08T08:02:43;101021.06;;;22.54;60.59
34961;BME280;30789;52.030;7.110;2023-09-08T08:05:11;101018.31;;;22.63;59.75
34961;BME280;30789;52.030;7.110;2023-09-08T08:07:40;101019.28;;;22.69;59.99
34961;BME280;30789;52.030;7.110;2023-09-08T08:10:10;101015.19;;;22.82;59.58
34961;BME280;30789;52.030;7.110;2023-09-08T08:12:43;101012.03;;;22.80;59.81
34961;BME280;30789;52.030;7.110;2023-09-08T08:15:14;101011.84;;;23.05;58.55
34961;BME280;30789;52.030;7.110;2023-09-08T08:17:43;101015.19;;;23.22;58.50
34961;BME280;30789;52.030;7.110;2023-09-08T08:20:12;101012.31;;;23.34;57.22
34961;BME280;30789;52.030;7.110;2023-09-08T08:22:44;101009.06;;;23.45;56.90
34961;BME280;30789;52.030;7.110;2023-09-08T08:25:11;101019.06;;;23.46;56.15
34961;BME280;30789;52.030;7.110;2023-09-08T08:27:39;101020.78;;;23.43;55.82
34961;BME280;30789;52.030;7.110;2023-09-08T08:30:07;101013.28;;;23.49;56.70
34961;BME280;30789;52.030;7.110;2023-09-08T08:32:34;101030.16;;;23.49;55.95
34961;BME280;30789;52.030;7.110;2023-09-08T08:35:00;101022.50;;;23.50;55.89
34961;BME280;30789;52.030;7.110;2023-09-08T08:37:27;101019.75;;;23.68;55.80
34961;BME280;30789;52.030;7.110;2023-09-08T08:39:56;101021.44;;;23.75;55.07
34961;BME280;30789;52.030;7.110;2023-09-08T08:42:22;101025.53;;;23.74;54.73
34961;BME280;30789;52.030;7.110;2023-09-08T08:44:49;101027.41;;;23.77;54.18
34961;BME280;30789;52.030;7.110;2023-09-08T08:47:16;101026.19;;;23.87;55.40
34961;BME280;30789;52.030;7.110;2023-09-08T08:49:43;101024.47;;;23.89;53.72
34961;BME280;30789;52.030;7.110;2023-09-08T08:54:39;101024.34;;;24.20;55.10
34961;BME280;30789;52.030;7.110;2023-09-08T08:57:07;101016.97;;;24.31;54.32
34961;BME280;30789;52.030;7.110;2023-09-08T08:59:35;101016.81;;;24.35;54.05
34961;BME280;30789;52.030;7.110;2023-09-08T09:02:02;101017.59;;;24.53;51.53
34961;BME280;30789;52.030;7.110;2023-09-08T09:04:29;101019.31;;;24.69;51.07
34961;BME280;30789;52.030;7.110;2023-09-08T09:06:57;101023.66;;;24.88;52.39
34961;BME280;30789;52.030;7.110;2023-09-08T09:09:24;101021.00;;;24.84;50.66
34961;BME280;30789;52.030;7.110;2023-09-08T09:11:51;101015.16;;;24.97;52.61
34961;BME280;30789;52.030;7.110;2023-09-08T09:14:19;101020.44;;;25.04;49.78
34961;BME280;30789;52.030;7.110;2023-09-08T09:16:46;101021.88;;;24.99;52.37
34961;BME280;30789;52.030;7.110;2023-09-08T09:19:18;101022.34;;;24.98;51.44
34961;BME280;30789;52.030;7.110;2023-09-08T09:21:47;101021.03;;;25.17;53.81
34961;BME280;30789;52.030;7.110;2023-09-08T09:24:16;101016.94;;;25.18;50.78
34961;BME280;30789;52.030;7.110;2023-09-08T09:26:43;101017.69;;;25.28;50.53
34961;BME280;30789;52.030;7.110;2023-09-08T09:29:12;101028.34;;;25.33;51.63
34961;BME280;30789;52.030;7.110;2023-09-08T09:31:50;101027.66;;;25.47;51.55
34961;BME280;30789;52.030;7.110;2023-09-08T09:34:17;101023.47;;;25.66;51.38
34961;BME280;30789;52.030;7.110;2023-09-08T09:36:45;101022.25;;;25.58;49.51
34961;BME280;30789;52.030;7.110;2023-09-08T09:39:16;101028.34;;;25.65;49.73
34961;BME280;30789;52.030;7.110;2023-09-08T09:41:43;101025.75;;;25.76;50.48
34961;BME280;30789;52.030;7.110;2023-09-08T09:44:10;101021.59;;;25.86;48.32
34961;BME280;30789;52.030;7.110;2023-09-08T09:46:37;101024.13;;;26.08;51.34
34961;BME280;30789;52.030;7.110;2023-09-08T09:49:05;101026.25;;;26.36;48.13
34961;BME280;30789;52.030;7.110;2023-09-08T09:51:32;101026.84;;;26.40;50.05
34961;BME280;30789;52.030;7.110;2023-09-08T09:53:58;101022.84;;;26.47;49.17
34961;BME280;30789;52.030;7.110;2023-09-08T09:56:25;101021.81;;;26.73;47.41
34961;BME280;30789;52.030;7.110;2023-09-08T09:58:53;101021.72;;;26.97;47.65
34961;BME280;30789;52.030;7.110;2023-09-08T10:01:20;101017.47;;;27.22;46.32
34961;BME280;30789;52.030;7.110;2023-09-08T10:03:48;101024.81;;;27.63;46.16
34961;BME280;30789;52.030;7.110;2023-09-08T10:06:19;101018.75;;;28.10;46.28
34961;BME280;30789;52.030;7.110;2023-09-08T10:08:46;101016.00;;;28.61;45.29
34961;BME280;30789;52.030;7.110;2023-09-08T10:11:16;101015.88;;;29.38;42.50
34961;BME280;30789;52.030;7.110;2023-09-08T10:13:46;101015.16;;;31.26;38.13
34961;BME280;30789;52.030;7.110;2023-09-08T10:16:16;101029.63;;;33.11;34.11
34961;BME280;30789;52.030;7.110;2023-09-08T10:18:44;101023.25;;;33.53;33.42
34961;BME280;30789;52.030;7.110;2023-09-08T10:21:13;101016.31;;;34.34;32.77
34961;BME280;30789;52.030;7.110;2023-09-08T10:23:44;101020.34;;;34.44;31.47
34961;BME280;30789;52.030;7.110;2023-09-08T10:26:16;101022.88;;;34.10;32.95
34961;BME280;30789;52.030;7.110;2023-09-08T10:28:44;101011.97;;;34.27;31.64
34961;BME280;30789;52.030;7.110;2023-09-08T10:31:11;101019.38;;;35.05;31.11
34961;BME280;30789;52.030;7.110;2023-09-08T10:33:39;101019.59;;;34.01;32.49
34961;BME280;30789;52.030;7.110;2023-09-08T10:36:08;101015.81;;;34.67;31.10
34961;BME280;30789;52.030;7.110;2023-09-08T10:38:35;101013.75;;;33.69;32.83
34961;BME280;30789;52.030;7.110;2023-09-08T10:41:36;101015.03;;;33.92;32.37
34961;BME280;30789;52.030;7.110;2023-09-08T10:44:03;101008.59;;;34.47;31.81
34961;BME280;30789;52.030;7.110;2023-09-08T10:46:32;101009.50;;;34.37;32.78
34961;BME280;30789;52.030;7.110;2023-09-08T10:49:06;101013.16;;;35.32;30.19
34961;BME280;30789;52.030;7.110;2023-09-08T10:51:35;101009.56;;;35.45;31.08
34961;BME280;30789;52.030;7.110;2023-09-08T10:54:02;101007.72;;;35.73;29.00
34961;BME280;30789;52.030;7.110;2023-09-08T10:56:53;101014.56;;;35.70;30.33
34961;BME280;30789;52.030;7.110;2023-09-08T10:59:21;101018.31;;;35.65;31.05
34961;BME280;30789;52.030;7.110;2023-09-08T11:01:50;101019.81;;;36.18;29.64
34961;BME280;30789;52.030;7.110;2023-09-08T11:04:19;101021.69;;;36.16;28.15
34961;BME280;30789;52.030;7.110;2023-09-08T11:06:46;101021.59;;;35.56;30.25
34961;BME280;30789;52.030;7.110;2023-09-08T11:09:12;101017.44;;;35.83;29.63
34961;BME280;30789;52.030;7.110;2023-09-08T11:11:39;101014.56;;;35.70;31.32
34961;BME280;30789;52.030;7.110;2023-09-08T11:14:18;101013.09;;;35.77;29.41
34961;BME280;30789;52.030;7.110;2023-09-08T11:16:48;101014.63;;;35.39;29.79
34961;BME280;30789;52.030;7.110;2023-09-08T11:19:15;101008.31;;;35.27;30.86
34961;BME280;30789;52.030;7.110;2023-09-08T11:21:42;101012.78;;;35.41;30.71
34961;BME280;30789;52.030;7.110;2023-09-08T11:24:08;101010.38;;;35.97;30.45
34961;BME280;30789;52.030;7.110;2023-09-08T11:26:36;101002.94;;;35.63;31.24
34961;BME280;30789;52.030;7.110;2023-09-08T11:29:03;101009.66;;;36.31;29.37
34961;BME280;30789;52.030;7.110;2023-09-08T11:31:31;101004.28;;;35.49;31.14
34961;BME280;30789;52.030;7.110;2023-09-08T11:33:59;101005.09;;;35.18;30.43
34961;BME280;30789;52.030;7.110;2023-09-08T11:36:26;100996.13;;;35.66;29.97
34961;BME280;30789;52.030;7.110;2023-09-08T11:38:53;101002.44;;;35.07;31.40
34961;BME280;30789;52.030;7.110;2023-09-08T11:41:20;100999.84;;;34.90;31.66
34961;BME280;30789;52.030;7.110;2023-09-08T11:43:49;101003.84;;;35.00;30.76
34961;BME280;30789;52.030;7.110;2023-09-08T11:46:16;100997.66;;;34.96;30.85
34961;BME280;30789;52.030;7.110;2023-09-08T11:48:46;100990.06;;;35.43;31.59
34961;BME280;30789;52.030;7.110;2023-09-08T11:51:12;100990.59;;;35.42;31.01
34961;BME280;30789;52.030;7.110;2023-09-08T11:53:39;100997.66;;;34.96;31.98
34961;BME280;30789;52.030;7.110;2023-09-08T11:56:07;100993.88;;;34.56;32.22
34961;BME280;30789;52.030;7.110;2023-09-08T11:58:34;100981.34;;;34.22;32.04
34961;BME280;30789;52.030;7.110;2023-09-08T12:01:01;100989.19;;;35.04;30.54
34961;BME280;30789;52.030;7.110;2023-09-08T12:03:29;100993.91;;;34.70;29.84
34961;BME280;30789;52.030;7.110;2023-09-08T12:05:57;100989.44;;;35.19;30.80
34961;BME280;30789;52.030;7.110;2023-09-08T12:08:25;100991.19;;;34.77;31.56
34961;BME280;30789;52.030;7.110;2023-09-08T12:10:53;100983.34;;;35.09;31.37
34961;BME280;30789;52.030;7.110;2023-09-08T12:13:21;100985.69;;;34.29;32.19
34961;BME280;30789;52.030;7.110;2023-09-08T12:15:49;100981.50;;;34.30;31.45
34961;BME280;30789;52.030;7.110;2023-09-08T12:18:15;100975.09;;;33.63;33.40
34961;BME280;30789;52.030;7.110;2023-09-08T12:20:42;100974.41;;;33.51;33.52
34961;BME280;30789;52.030;7.110;2023-09-08T12:23:17;100979.94;;;33.92;34.19
34961;BME280;30789;52.030;7.110;2023-09-08T12:25:45;100976.09;;;34.08;32.43
34961;BME280;30789;52.030;7.110;2023-09-08T12:28:11;100973.22;;;34.26;34.04
34961;BME280;30789;52.030;7.110;2023-09-08T12:30:38;100973.97;;;34.96;32.52
34961;BME280;30789;52.030;7.110;2023-09-08T12:33:05;100974.88;;;34.72;32.02
34961;BME280;30789;52.030;7.110;2023-09-08T12:35:32;100976.16;;;34.90;31.80
34961;BME280;30789;52.030;7.110;2023-09-08T12:37:59;100973.00;;;34.43;32.16
34961;BME280;30789;52.030;7.110;2023-09-08T12:40:29;100969.97;;;34.35;31.56
34961;BME280;30789;52.030;7.110;2023-09-08T12:42:56;100961.94;;;33.54;33.19
34961;BME280;30789;52.030;7.110;2023-09-08T12:45:24;100960.00;;;33.62;32.91
34961;BME280;30789;52.030;7.110;2023-09-08T12:47:51;100958.94;;;33.84;32.88
34961;BME280;30789;52.030;7.110;2023-09-08T12:50:20;100959.78;;;34.40;32.49
34961;BME280;30789;52.030;7.110;2023-09-08T12:52:46;100963.09;;;34.25;31.76
34961;BME280;30789;52.030;7.110;2023-09-08T12:55:13;100967.56;;;35.60;30.11
34961;BME280;30789;52.030;7.110;2023-09-08T12:57:41;100975.16;;;35.97;28.36
34961;BME280;30789;52.030;7.110;2023-09-08T13:00:08;100965.13;;;35.77;30.18
34961;BME280;30789;52.030;7.110;2023-09-08T13:02:35;100966.63;;;36.17;28.77
34961;BME280;30789;52.030;7.110;2023-09-08T13:05:01;100963.53;;;36.15;28.41
34961;BME280;30789;52.030;7.110;2023-09-08T13:07:28;100952.44;;;36.33;27.97
34961;BME280;30789;52.030;7.110;2023-09-08T13:09:54;100950.78;;;36.37;27.82
34961;BME280;30789;52.030;7.110;2023-09-08T13:12:21;100946.88;;;36.68;28.34
34961;BME280;30789;52.030;7.110;2023-09-08T13:14:49;100945.56;;;37.38;28.18
34961;BME280;30789;52.030;7.110;2023-09-08T13:17:16;100937.53;;;37.16;28.81
34961;BME280;30789;52.030;7.110;2023-09-08T13:19:43;100943.47;;;37.75;27.45
34961;BME280;30789;52.030;7.110;2023-09-08T13:22:10;100944.88;;;36.76;27.54
34961;BME280;30789;52.030;7.110;2023-09-08T13:24:37;100937.13;;;36.92;29.08
34961;BME280;30789;52.030;7.110;2023-09-08T13:27:04;100939.94;;;36.43;29.19
34961;BME280;30789;52.030;7.110;2023-09-08T13:29:31;100944.81;;;36.35;28.65
34961;BME280;30789;52.030;7.110;2023-09-08T13:31:59;100938.44;;;36.29;30.31
34961;BME280;30789;52.030;7.110;2023-09-08T13:34:25;100940.00;;;36.71;28.20
34961;BME280;30789;52.030;7.110;2023-09-08T13:36:52;100932.63;;;36.76;28.74
34961;BME280;30789;52.030;7.110;2023-09-08T13:39:18;100929.31;;;37.20;27.53
34961;BME280;30789;52.030;7.110;2023-09-08T13:41:49;100930.66;;;36.91;27.71
34961;BME280;30789;52.030;7.110;2023-09-08T13:44:16;100922.94;;;36.86;28.50
34961;BME280;30789;52.030;7.110;2023-09-08T13:46:44;100928.72;;;37.78;26.62
34961;BME280;30789;52.030;7.110;2023-09-08T13:49:11;100932.09;;;37.97;25.36
34961;BME280;30789;52.030;7.110;2023-09-08T13:51:38;100926.66;;;37.86;27.29
34961;BME280;30789;52.030;7.110;2023-09-08T13:54:05;100922.00;;;37.40;28.40
34961;BME280;30789;52.030;7.110;2023-09-08T13:56:31;100917.91;;;36.79;29.03
34961;BME280;30789;52.030;7.110;2023-09-08T13:58:58;100922.66;;;36.56;30.67
34961;BME280;30789;52.030;7.110;2023-09-08T14:01:25;100916.81;;;36.69;29.44
34961;BME280;30789;52.030;7.110;2023-09-08T14:03:53;100913.94;;;36.69;29.13
34961;BME280;30789;52.030;7.110;2023-09-08T14:06:21;100918.88;;;37.30;27.44
34961;BME280;30789;52.030;7.110;2023-09-08T14:08:47;100920.66;;;37.13;27.48
34961;BME280;30789;52.030;7.110;2023-09-08T14:11:14;100917.47;;;37.24;27.42
34961;BME280;30789;52.030;7.110;2023-09-08T14:13:40;100916.44;;;37.14;26.87
34961;BME280;30789;52.030;7.110;2023-09-08T14:16:08;100916.78;;;37.10;28.87
34961;BME280;30789;52.030;7.110;2023-09-08T14:18:34;100911.50;;;36.53;29.24
34961;BME280;30789;52.030;7.110;2023-09-08T14:21:01;100914.38;;;36.94;28.10
34961;BME280;30789;52.030;7.110;2023-09-08T14:23:29;100907.66;;;36.50;28.44
34961;BME280;30789;52.030;7.110;2023-09-08T14:25:56;100906.53;;;35.86;29.66
34961;BME280;30789;52.030;7.110;2023-09-08T14:28:22;100903.47;;;35.71;29.57
34961;BME280;30789;52.030;7.110;2023-09-08T14:30:49;100904.19;;;35.97;29.67
34961;BME280;30789;52.030;7.110;2023-09-08T14:33:17;100903.56;;;35.91;28.74
34961;BME280;30789;52.030;7.110;2023-09-08T14:35:43;100909.47;;;36.06;28.59
34961;BME280;30789;52.030;7.110;2023-09-08T14:38:12;100901.69;;;35.68;29.11
34961;BME280;30789;52.030;7.110;2023-09-08T14:40:43;100906.69;;;35.54;29.22
34961;BME280;30789;52.030;7.110;2023-09-08T14:43:09;100899.63;;;35.29;29.81
34961;BME280;30789;52.030;7.110;2023-09-08T14:45:36;100895.31;;;34.97;29.93
34961;BME280;30789;52.030;7.110;2023-09-08T14:48:02;100901.13;;;34.28;32.03
34961;BME280;30789;52.030;7.110;2023-09-08T14:50:29;100886.63;;;34.26;31.37
34961;BME280;30789;52.030;7.110;2023-09-08T14:52:55;100891.94;;;34.35;29.61
34961;BME280;30789;52.030;7.110;2023-09-08T14:55:22;100888.22;;;34.40;29.47
34961;BME280;30789;52.030;7.110;2023-09-08T14:57:50;100882.97;;;34.25;30.04
34961;BME280;30789;52.030;7.110;2023-09-08T15:00:16;100887.19;;;34.06;30.88
34961;BME280;30789;52.030;7.110;2023-09-08T15:02:43;100883.34;;;34.35;29.42
34961;BME280;30789;52.030;7.110;2023-09-08T15:05:10;100881.34;;;34.30;29.93
34961;BME280;30789;52.030;7.110;2023-09-08T15:07:37;100885.25;;;33.95;31.08
34961;BME280;30789;52.030;7.110;2023-09-08T15:10:04;100881.53;;;33.63;31.58
34961;BME280;30789;52.030;7.110;2023-09-08T15:12:30;100877.88;;;33.63;31.93
34961;BME280;30789;52.030;7.110;2023-09-08T15:14:58;100877.75;;;33.74;32.10
34961;BME280;30789;52.030;7.110;2023-09-08T15:17:25;100882.19;;;33.08;32.73
34961;BME280;30789;52.030;7.110;2023-09-08T15:19:51;100879.06;;;33.30;34.10
34961;BME280;30789;52.030;7.110;2023-09-08T15:22:18;100879.28;;;32.84;33.51
34961;BME280;30789;52.030;7.110;2023-09-08T15:24:44;100870.81;;;33.27;31.23
34961;BME280;30789;52.030;7.110;2023-09-08T15:27:11;100879.84;;;33.31;32.02
34961;BME280;30789;52.030;7.110;2023-09-08T15:29:38;100869.59;;;33.41;31.30
34961;BME280;30789;52.030;7.110;2023-09-08T15:32:06;100872.63;;;33.48;30.96
34961;BME280;30789;52.030;7.110;2023-09-08T15:34:33;100868.75;;;33.46;32.08
34961;BME280;30789;52.030;7.110;2023-09-08T15:37:00;100874.00;;;33.42;32.98
34961;BME280;30789;52.030;7.110;2023-09-08T15:39:26;100876.50;;;33.51;32.75
34961;BME280;30789;52.030;7.110;2023-09-08T15:41:53;100871.91;;;33.42;33.18
34961;BME280;30789;52.030;7.110;2023-09-08T15:44:19;100863.66;;;33.39;32.45
34961;BME280;30789;52.030;7.110;2023-09-08T15:46:46;100867.78;;;33.38;33.08